Time;durP1;ratioP1;P1;durP2;ratioP2;P2;SDS_P1;SDS_P2;PMS_P1;PMS_P2;Temp;Humidity;BMP_temperature;BMP_pressure;BME280_temperature;BME280_humidity;BME280_pressure;Samples;Min_cycle;Max_cycle;Signal;HPM_P1;HPM_P2
2023/10/04 00:00:52;;;;;;;9.02;1.60;;;12.30;99.90;;;;;;4952035;29;20056;-85
2023/10/04 00:03:19;;;;;;;4.35;1.20;;;12.30;99.90;;;;;;4936020;29;20072;-84
2023/10/04 00:05:46;;;;;;;10.43;1.55;;;12.20;99.90;;;;;;4935975;29;20440;-84
2023/10/04 00:08:12;;;;;;;8.02;1.35;;;12.20;99.90;;;;;;4935717;29;20044;-84
2023/10/04 00:10:39;;;;;;;9.55;1.83;;;12.20;99.90;;;;;;4935793;29;20040;-84
2023/10/04 00:13:06;;;;;;;8.73;1.75;;;12.10;99.90;;;;;;4936814;29;20040;-84
2023/10/04 00:15:33;;;;;;;6.68;1.80;;;12.10;99.90;;;;;;4923201;29;20409;-84
2023/10/04 00:17:59;;;;;;;6.95;1.50;;;12.00;99.90;;;;;;4916820;29;20041;-85
2023/10/04 00:20:33;;;;;;;7.60;1.88;;;12.00;99.90;;;;;;4916873;29;20041;-84
2023/10/04 00:23:04;;;;;;;7.20;1.30;;;12.00;99.90;;;;;;4928156;29;20409;-84
2023/10/04 00:25:33;;;;;;;5.60;1.77;;;12.00;99.90;;;;;;4922986;29;20133;-84
2023/10/04 00:27:59;;;;;;;5.85;1.70;;;12.00;99.90;;;;;;4929422;29;20493;-84
2023/10/04 00:30:28;;;;;;;8.43;2.60;;;12.00;99.90;;;;;;4923385;29;20123;-84
2023/10/04 00:32:55;;;;;;;12.07;3.03;;;12.00;99.90;;;;;;4928845;29;20051;-85
2023/10/04 00:35:23;;;;;;;17.05;2.88;;;12.00;99.90;;;;;;4919932;29;20047;-84
2023/10/04 00:37:55;;;;;;;10.45;2.85;;;12.00;99.90;;;;;;4931232;29;20043;-84
2023/10/04 00:40:27;;;;;;;10.15;2.17;;;12.00;99.90;;;;;;4925998;29;20079;-84
2023/10/04 00:42:56;;;;;;;7.38;1.80;;;12.00;99.90;;;;;;4938289;29;20130;-85
2023/10/04 00:45:23;;;;;;;7.40;1.92;;;12.00;99.90;;;;;;4938458;29;20044;-84
2023/10/04 00:47:54;;;;;;;4.00;1.33;;;11.90;99.90;;;;;;4924340;29;20131;-84
2023/10/04 00:50:26;;;;;;;7.32;1.70;;;11.90;99.90;;;;;;4928633;29;20592;-85
2023/10/04 00:52:58;;;;;;;8.20;1.50;;;11.90;99.90;;;;;;4944316;29;20048;-85
2023/10/04 00:55:26;;;;;;;7.18;1.90;;;11.90;99.90;;;;;;4927405;29;20036;-85
2023/10/04 00:57:56;;;;;;;4.13;1.17;;;11.90;99.90;;;;;;4907260;29;20037;-84
2023/10/04 01:00:26;;;;;;;7.10;1.40;;;11.90;99.90;;;;;;4919137;29;20454;-85
2023/10/04 01:02:52;;;;;;;6.43;1.70;;;11.90;99.90;;;;;;4919595;29;20043;-85
2023/10/04 01:05:24;;;;;;;4.50;1.25;;;12.00;99.90;;;;;;4930922;29;20828;-85
2023/10/04 01:07:52;;;;;;;12.77;1.95;;;11.90;99.90;;;;;;4904234;29;20095;-85
2023/10/04 01:10:24;;;;;;;6.93;1.60;;;11.90;99.90;;;;;;4917444;29;20053;-85
2023/10/04 01:12:52;;;;;;;6.20;1.40;;;11.90;99.90;;;;;;4937813;29;20507;-85
2023/10/04 01:15:31;;;;;;;8.65;1.65;;;11.90;99.90;;;;;;4923311;29;20406;-85
2023/10/04 01:18:07;;;;;;;6.72;1.52;;;11.90;99.90;;;;;;4919226;29;20505;-84
2023/10/04 01:20:35;;;;;;;10.65;1.73;;;11.90;99.90;;;;;;4915737;29;20040;-85
2023/10/04 01:23:05;;;;;;;12.43;2.05;;;11.90;99.90;;;;;;4933288;29;20040;-85
2023/10/04 01:25:33;;;;;;;11.75;2.17;;;11.90;99.90;;;;;;4928149;29;20045;-85
2023/10/04 01:28:28;;;;;;;13.60;1.92;;;11.90;99.90;;;;;;4915937;29;20142;-84
2023/10/04 01:31:00;;;;;;;9.35;1.65;;;11.90;99.90;;;;;;4945088;29;20489;-85
2023/10/04 01:33:28;;;;;;;6.57;2.05;;;12.00;99.90;;;;;;4915897;29;20095;-84
2023/10/04 01:35:55;;;;;;;7.78;1.58;;;12.00;99.90;;;;;;4941169;29;20063;-85
2023/10/04 01:38:31;;;;;;;8.52;1.63;;;12.00;99.90;;;;;;4931108;29;20883;-84
2023/10/04 01:40:58;;;;;;;7.18;1.75;;;11.90;99.90;;;;;;4919340;29;20059;-85
2023/10/04 01:43:25;;;;;;;9.68;1.80;;;11.90;99.90;;;;;;4935718;29;20039;-84
2023/10/04 01:45:58;;;;;;;6.65;1.50;;;12.00;99.90;;;;;;4942138;29;20135;-84
2023/10/04 01:48:28;;;;;;;6.53;1.30;;;12.00;99.90;;;;;;4924708;29;20094;-85
2023/10/04 01:50:55;;;;;;;10.63;1.88;;;12.30;99.90;;;;;;4924734;29;20044;-84
2023/10/04 01:53:26;;;;;;;9.40;1.60;;;12.00;99.90;;;;;;4930295;29;20046;-84
2023/10/04 01:55:56;;;;;;;5.75;1.30;;;12.10;99.90;;;;;;4919952;29;20075;-84
2023/10/04 01:58:23;;;;;;;10.68;1.60;;;12.00;99.90;;;;;;4937230;29;20048;-84
2023/10/04 02:00:54;;;;;;;6.80;2.00;;;12.00;99.90;;;;;;4941518;29;20047;-84
2023/10/04 02:03:20;;;;;;;8.60;1.55;;;12.00;99.90;;;;;;4936827;29;20095;-84
2023/10/04 02:05:56;;;;;;;11.38;1.70;;;12.00;99.90;;;;;;4933228;29;20386;-85
2023/10/04 02:08:23;;;;;;;12.80;1.95;;;12.00;99.90;;;;;;4918346;29;20040;-85
2023/10/04 02:10:52;;;;;;;8.80;1.67;;;12.00;99.90;;;;;;4934510;29;20139;-84
2023/10/04 02:13:19;;;;;;;6.47;1.67;;;12.00;99.90;;;;;;4920304;29;20055;-85
2023/10/04 02:15:51;;;;;;;11.05;1.73;;;12.00;99.90;;;;;;4927796;29;20047;-85
2023/10/04 02:18:21;;;;;;;8.50;1.63;;;12.10;99.90;;;;;;4899321;29;20055;-84
2023/10/04 02:20:49;;;;;;;6.78;1.50;;;12.10;99.90;;;;;;4899912;29;20048;-85
2023/10/04 02:23:16;;;;;;;7.05;1.67;;;12.10;99.90;;;;;;4899662;29;20072;-85
2023/10/04 02:25:44;;;;;;;5.82;1.52;;;12.10;99.90;;;;;;4914260;29;20037;-84
2023/10/04 02:28:18;;;;;;;10.32;1.75;;;12.20;99.90;;;;;;4905412;29;20080;-85
2023/10/04 02:30:47;;;;;;;7.03;1.55;;;12.30;99.90;;;;;;4910589;29;20509;-85
2023/10/04 02:33:15;;;;;;;9.80;1.77;;;12.10;99.90;;;;;;4898934;29;20144;-84
2023/10/04 02:35:46;;;;;;;7.25;1.73;;;12.10;99.90;;;;;;4904612;29;20124;-84
2023/10/04 02:38:16;;;;;;;8.48;1.70;;;12.10;99.90;;;;;;4902629;29;20041;-85
2023/10/04 02:40:43;;;;;;;8.90;1.85;;;12.10;99.90;;;;;;4896172;29;20068;-84
2023/10/04 02:43:10;;;;;;;10.52;1.90;;;12.00;99.90;;;;;;4895769;29;20044;-85
2023/10/04 02:45:37;;;;;;;8.25;1.80;;;12.10;99.90;;;;;;4899587;29;20068;-85
2023/10/04 02:48:04;;;;;;;6.55;1.80;;;12.00;99.90;;;;;;4898627;29;20049;-85
2023/10/04 02:50:31;;;;;;;9.23;1.77;;;12.10;99.90;;;;;;4908315;29;20489;-85
2023/10/04 02:52:57;;;;;;;7.75;2.00;;;12.00;99.90;;;;;;4895521;29;20265;-85
2023/10/04 02:55:24;;;;;;;9.00;1.98;;;12.10;99.90;;;;;;4921889;29;20047;-85
2023/10/04 02:57:52;;;;;;;9.85;1.98;;;12.10;99.90;;;;;;4899135;29;20033;-85
2023/10/04 03:00:21;;;;;;;10.90;2.10;;;12.10;99.90;;;;;;4899089;29;20092;-85
2023/10/04 03:02:50;;;;;;;12.95;1.85;;;12.10;99.90;;;;;;4911092;29;20049;-84
2023/10/04 03:05:20;;;;;;;12.48;2.10;;;12.10;99.90;;;;;;4892500;29;20799;-85
2023/10/04 03:07:49;;;;;;;9.98;1.70;;;12.10;99.90;;;;;;4890106;29;20051;-85
2023/10/04 03:10:24;;;;;;;11.45;1.80;;;12.10;99.90;;;;;;4914554;29;20045;-85
2023/10/04 03:12:56;;;;;;;10.13;1.83;;;12.10;99.90;;;;;;4904276;29;20101;-85
2023/10/04 03:15:23;;;;;;;10.13;2.00;;;12.10;99.90;;;;;;4901735;29;20052;-85
2023/10/04 03:17:51;;;;;;;8.00;1.58;;;12.10;99.90;;;;;;4920746;29;20124;-84
2023/10/04 03:20:21;;;;;;;8.85;1.95;;;12.10;99.90;;;;;;4911771;29;20032;-84
2023/10/04 03:22:49;;;;;;;10.43;1.70;;;12.10;99.90;;;;;;4897879;29;20044;-85
2023/10/04 03:25:16;;;;;;;12.25;2.15;;;12.10;99.90;;;;;;4904474;29;20079;-85
2023/10/04 03:27:44;;;;;;;7.78;1.60;;;12.10;99.90;;;;;;4902445;29;20044;-85
2023/10/04 03:30:15;;;;;;;9.52;1.90;;;12.10;99.90;;;;;;4898750;29;20100;-84
2023/10/04 03:32:45;;;;;;;11.25;1.85;;;12.20;99.90;;;;;;4909827;29;20095;-85
2023/10/04 03:35:14;;;;;;;11.40;2.28;;;12.20;99.90;;;;;;4902547;29;20085;-85
2023/10/04 03:37:54;;;;;;;8.95;1.98;;;12.20;99.90;;;;;;4910491;29;20068;-84
2023/10/04 03:40:22;;;;;;;9.13;1.83;;;12.20;99.90;;;;;;4902306;29;20045;-85
2023/10/04 03:42:49;;;;;;;14.27;1.92;;;12.30;99.90;;;;;;4901903;29;20044;-85
2023/10/04 03:45:18;;;;;;;11.10;2.10;;;12.30;99.90;;;;;;4901888;29;20037;-84
2023/10/04 03:47:50;;;;;;;10.93;2.58;;;12.30;99.90;;;;;;4896519;29;20096;-85
2023/10/04 03:50:17;;;;;;;11.38;1.90;;;12.20;99.90;;;;;;4912670;29;20048;-85
2023/10/04 03:52:46;;;;;;;9.00;2.10;;;12.20;99.90;;;;;;4913140;29;20040;-84
2023/10/04 03:55:13;;;;;;;9.02;1.98;;;12.20;99.90;;;;;;4909466;29;20048;-85
2023/10/04 03:57:42;;;;;;;7.53;1.80;;;12.20;99.90;;;;;;4921208;29;20112;-85
2023/10/04 04:00:17;;;;;;;12.70;2.67;;;12.20;99.90;;;;;;4907983;29;20041;-84
2023/10/04 04:02:44;;;;;;;7.80;2.13;;;12.20;99.90;;;;;;4915913;29;20045;-85
2023/10/04 04:05:14;;;;;;;9.32;1.95;;;12.20;99.90;;;;;;4901868;29;20080;-85
2023/10/04 04:07:41;;;;;;;8.82;1.90;;;12.20;99.90;;;;;;4904546;29;20075;-85
2023/10/04 04:10:14;;;;;;;10.85;1.92;;;12.30;99.90;;;;;;4907912;29;20044;-85
2023/10/04 04:12:42;;;;;;;9.27;1.75;;;12.30;99.90;;;;;;4901982;29;20037;-85
2023/10/04 04:15:10;;;;;;;11.00;1.95;;;12.30;99.90;;;;;;4900977;29;20059;-85
2023/10/04 04:17:37;;;;;;;10.75;2.03;;;12.30;99.90;;;;;;4925184;29;20098;-85
2023/10/04 04:20:13;;;;;;;9.48;1.70;;;12.20;99.90;;;;;;4897189;29;20478;-85
2023/10/04 04:22:50;;;;;;;6.65;1.52;;;12.20;99.90;;;;;;4900453;29;20041;-85
2023/10/04 04:25:19;;;;;;;6.50;1.45;;;12.20;99.90;;;;;;4897554;29;20528;-84
2023/10/04 04:27:47;;;;;;;9.50;1.80;;;12.20;99.90;;;;;;4900845;29;20051;-84
2023/10/04 04:30:19;;;;;;;9.07;2.22;;;12.20;99.90;;;;;;4901550;29;20505;-85
2023/10/04 04:32:52;;;;;;;8.70;1.80;;;12.20;99.90;;;;;;4909415;29;20052;-85
2023/10/04 04:38:24;;;;;;;12.60;2.50;;;12.20;99.90;;;;;;4924573;29;20048;-85
2023/10/04 04:40:55;;;;;;;7.65;2.20;;;12.20;99.90;;;;;;4916620;29;20056;-85
2023/10/04 04:45:56;;;;;;;14.18;2.22;;;12.20;99.90;;;;;;4924826;29;20052;-85
2023/10/04 04:48:35;;;;;;;10.68;1.90;;;12.20;99.90;;;;;;4901007;29;20119;-85
2023/10/04 04:51:06;;;;;;;10.18;2.10;;;12.20;99.90;;;;;;4900559;29;20066;-84
2023/10/04 04:53:33;;;;;;;11.35;2.20;;;12.20;99.90;;;;;;4915985;29;20044;-85
2023/10/04 04:56:03;;;;;;;10.40;2.20;;;12.10;99.90;;;;;;4905051;29;20040;-85
2023/10/04 04:58:31;;;;;;;6.28;2.10;;;12.10;99.90;;;;;;4909849;29;20044;-85
2023/10/04 05:01:01;;;;;;;11.10;2.00;;;12.10;99.90;;;;;;4928459;29;20184;-85
2023/10/04 05:03:27;;;;;;;12.02;2.08;;;12.20;99.90;;;;;;4916197;29;20057;-85
2023/10/04 05:05:55;;;;;;;9.25;2.08;;;12.10;99.90;;;;;;4903077;29;20505;-85
2023/10/04 05:08:25;;;;;;;10.65;2.08;;;12.10;99.90;;;;;;4900597;29;20093;-85
2023/10/04 05:10:55;;;;;;;5.85;1.55;;;12.10;99.90;;;;;;4897229;29;20399;-85
2023/10/04 05:13:22;;;;;;;12.40;2.13;;;12.00;99.90;;;;;;4912759;29;20119;-85
2023/10/04 05:15:49;;;;;;;8.77;1.90;;;12.00;99.90;;;;;;4932715;29;20051;-85
2023/10/04 05:18:17;;;;;;;7.07;1.80;;;12.00;99.90;;;;;;4915709;29;20049;-85
2023/10/04 05:20:54;;;;;;;9.05;2.10;;;12.00;99.90;;;;;;4933618;29;20084;-85
2023/10/04 05:23:25;;;;;;;10.73;2.22;;;12.00;99.90;;;;;;4915796;29;20080;-86
2023/10/04 05:25:53;;;;;;;19.88;2.20;;;11.90;99.90;;;;;;4918782;29;20465;-85
2023/10/04 05:28:22;;;;;;;11.05;1.92;;;12.00;99.90;;;;;;4918765;29;20070;-85
2023/10/04 05:30:51;;;;;;;5.72;1.80;;;12.00;99.90;;;;;;4919073;29;20417;-85
2023/10/04 05:33:19;;;;;;;9.70;2.17;;;12.00;99.90;;;;;;4934559;29;20400;-85
2023/10/04 05:35:48;;;;;;;7.60;2.30;;;12.00;99.90;;;;;;4906301;29;20040;-85
2023/10/04 05:38:17;;;;;;;10.93;1.80;;;12.00;99.90;;;;;;4915530;29;20068;-85
2023/10/04 05:40:46;;;;;;;7.15;1.50;;;12.00;99.90;;;;;;4925329;29;20039;-85
2023/10/04 05:43:14;;;;;;;6.25;1.58;;;12.30;99.90;;;;;;4921443;29;20048;-85
2023/10/04 05:45:42;;;;;;;11.60;1.90;;;12.00;99.90;;;;;;4919865;29;20420;-85
2023/10/04 05:48:10;;;;;;;8.15;1.60;;;12.00;99.90;;;;;;4925754;29;20127;-85
2023/10/04 05:50:38;;;;;;;13.88;2.13;;;12.00;99.90;;;;;;4929393;29;20095;-85
2023/10/04 05:53:08;;;;;;;8.73;1.83;;;11.90;99.90;;;;;;4927394;29;20071;-85
2023/10/04 05:55:37;;;;;;;9.13;2.00;;;11.90;99.90;;;;;;4933254;29;20094;-85
2023/10/04 05:58:08;;;;;;;10.55;2.13;;;12.00;99.90;;;;;;4918476;29;20548;-85
2023/10/04 06:00:40;;;;;;;12.07;1.80;;;12.00;99.90;;;;;;4930553;29;20035;-85
2023/10/04 06:03:12;;;;;;;10.18;2.20;;;11.90;99.90;;;;;;4937968;29;20092;-85
2023/10/04 06:05:40;;;;;;;7.72;2.10;;;11.90;99.90;;;;;;4919346;29;20080;-85
2023/10/04 06:08:15;;;;;;;7.68;2.25;;;11.90;99.90;;;;;;4939607;29;20123;-85
2023/10/04 06:10:43;;;;;;;12.30;2.50;;;11.90;99.90;;;;;;4923347;29;20075;-85
2023/10/04 06:13:12;;;;;;;6.90;1.67;;;11.90;99.90;;;;;;4924138;29;20095;-85
2023/10/04 06:15:44;;;;;;;7.72;1.90;;;11.90;99.90;;;;;;4934854;29;20052;-85
2023/10/04 06:18:12;;;;;;;9.23;2.13;;;12.00;99.90;;;;;;4928101;29;20078;-85
2023/10/04 06:20:42;;;;;;;8.85;1.88;;;12.00;99.90;;;;;;4918053;29;20059;-85
2023/10/04 06:23:10;;;;;;;9.38;1.98;;;11.90;99.90;;;;;;4924283;29;20130;-86
2023/10/04 06:25:46;;;;;;;8.32;2.30;;;11.90;99.90;;;;;;4919319;29;20036;-86
2023/10/04 06:28:14;;;;;;;10.32;2.00;;;12.00;99.90;;;;;;4915204;29;20036;-86
2023/10/04 06:30:42;;;;;;;6.60;1.73;;;12.00;99.90;;;;;;4915239;29;20037;-86
2023/10/04 06:33:10;;;;;;;8.27;1.95;;;12.10;99.90;;;;;;4916345;29;20036;-86
2023/10/04 06:35:38;;;;;;;7.22;2.05;;;12.60;99.90;;;;;;4923808;29;20744;-87
2023/10/04 06:38:06;;;;;;;9.95;2.60;;;12.10;99.90;;;;;;4914685;29;20127;-86
2023/10/04 06:40:33;;;;;;;10.48;2.28;;;12.10;99.90;;;;;;4939675;29;20130;-86
2023/10/04 06:43:04;;;;;;;7.88;2.38;;;12.20;99.90;;;;;;4917698;29;20047;-86
2023/10/04 06:45:32;;;;;;;12.82;2.55;;;12.20;99.90;;;;;;4930085;29;20040;-86
2023/10/04 06:48:00;;;;;;;11.70;2.40;;;12.20;99.90;;;;;;4917884;29;20055;-85
2023/10/04 06:50:32;;;;;;;9.77;2.60;;;12.20;99.90;;;;;;4918552;29;20048;-87
2023/10/04 06:53:01;;;;;;;8.70;1.98;;;12.30;99.90;;;;;;4924908;29;20493;-87
2023/10/04 06:55:30;;;;;;;11.27;2.22;;;12.30;99.90;;;;;;4927162;29;20040;-86
2023/10/04 06:57:58;;;;;;;8.57;2.15;;;12.40;99.90;;;;;;4921726;29;20039;-86
2023/10/04 07:00:30;;;;;;;10.57;2.13;;;12.40;99.90;;;;;;4941432;29;20032;-89
2023/10/04 07:02:58;;;;;;;7.82;1.95;;;12.40;99.90;;;;;;4931896;29;20490;-89
2023/10/04 07:05:38;;;;;;;10.38;2.13;;;12.50;99.90;;;;;;4919426;29;20105;-89
2023/10/04 07:08:08;;;;;;;11.00;2.65;;;12.60;99.90;;;;;;4919202;29;20137;-89
2023/10/04 07:10:36;;;;;;;5.80;2.03;;;12.60;99.90;;;;;;4920590;29;20041;-86
2023/10/04 07:13:03;;;;;;;12.55;2.35;;;12.60;99.90;;;;;;4917664;29;20040;-87
2023/10/04 07:15:35;;;;;;;8.75;2.45;;;12.70;99.90;;;;;;4900986;29;20124;-86
2023/10/04 07:18:06;;;;;;;9.90;2.30;;;12.70;99.90;;;;;;4919425;29;20140;-86
2023/10/04 07:20:33;;;;;;;12.80;2.67;;;12.80;99.90;;;;;;4903556;29;20036;-87
2023/10/04 07:23:03;;;;;;;11.05;2.20;;;12.80;99.90;;;;;;4899487;29;20573;-87
2023/10/04 07:25:31;;;;;;;9.10;2.28;;;12.90;99.90;;;;;;4919260;29;20103;-87
2023/10/04 07:28:02;;;;;;;13.43;2.50;;;12.90;99.90;;;;;;4918666;29;20120;-87
2023/10/04 07:30:30;;;;;;;7.45;2.85;;;13.00;99.90;;;;;;4918680;29;20068;-87
2023/10/04 07:32:59;;;;;;;12.63;2.67;;;13.00;99.90;;;;;;4921887;29;20048;-87
2023/10/04 07:35:26;;;;;;;10.88;2.78;;;13.10;99.90;;;;;;4903074;29;20044;-87
2023/10/04 07:37:55;;;;;;;12.55;2.60;;;13.20;99.90;;;;;;4911338;29;20072;-87
2023/10/04 07:40:26;;;;;;;12.95;2.72;;;13.20;99.90;;;;;;4898945;29;20087;-86
2023/10/04 07:42:54;;;;;;;11.48;2.80;;;13.30;99.90;;;;;;4912556;29;20410;-87
2023/10/04 07:45:27;;;;;;;10.35;2.17;;;13.40;99.90;;;;;;4899288;29;20207;-87
2023/10/04 07:47:56;;;;;;;18.30;2.97;;;13.40;99.90;;;;;;4913909;29;20061;-87
2023/10/04 07:50:25;;;;;;;12.98;3.22;;;13.50;99.90;;;;;;4917695;29;20041;-87
2023/10/04 07:52:59;;;;;;;13.60;2.83;;;13.50;99.90;;;;;;4905010;29;20040;-87
2023/10/04 07:55:26;;;;;;;9.88;2.65;;;13.60;99.90;;;;;;4917925;29;20505;-87
2023/10/04 07:57:58;;;;;;;10.02;2.65;;;13.60;99.90;;;;;;4899341;29;20116;-86
2023/10/04 08:00:25;;;;;;;10.95;4.45;;;13.70;99.90;;;;;;4913092;29;20052;-86
2023/10/04 08:02:52;;;;;;;12.93;3.08;;;13.80;99.90;;;;;;4902611;29;20040;-87
2023/10/04 08:05:27;;;;;;;12.35;2.58;;;13.80;99.90;;;;;;4902009;29;20044;-85
2023/10/04 08:07:55;;;;;;;11.70;2.60;;;13.90;99.90;;;;;;4914889;29;20048;-86
2023/10/04 08:10:26;;;;;;;15.00;3.35;;;14.00;99.90;;;;;;4905251;29;20051;-86
2023/10/04 08:12:55;;;;;;;8.90;2.65;;;14.10;99.90;;;;;;4906125;29;20045;-86
2023/10/04 08:15:27;;;;;;;10.70;3.20;;;14.20;99.90;;;;;;4905706;29;20052;-87
2023/10/04 08:17:56;;;;;;;13.25;3.00;;;14.20;99.90;;;;;;4917236;29;20514;-87
2023/10/04 08:20:24;;;;;;;12.07;2.67;;;14.30;99.90;;;;;;4910215;29;20109;-87
2023/10/04 08:22:51;;;;;;;10.98;2.70;;;14.40;99.90;;;;;;4903731;29;20406;-87
2023/10/04 08:25:21;;;;;;;11.88;2.97;;;14.50;99.90;;;;;;4913417;29;20053;-87
2023/10/04 08:27:48;;;;;;;12.10;3.42;;;14.50;99.90;;;;;;4901845;29;20048;-87
2023/10/04 08:30:17;;;;;;;10.93;3.13;;;14.50;99.90;;;;;;4901676;29;20052;-87
2023/10/04 08:32:46;;;;;;;9.93;3.15;;;14.60;99.90;;;;;;4913825;29;20047;-87
2023/10/04 08:35:28;;;;;;;13.75;2.85;;;14.70;99.90;;;;;;4910521;29;20166;-87
2023/10/04 08:37:57;;;;;;;13.60;3.00;;;14.80;99.90;;;;;;4902015;29;20052;-87
2023/10/04 08:40:27;;;;;;;13.18;3.22;;;14.90;99.90;;;;;;4898853;29;20083;-86
2023/10/04 08:42:55;;;;;;;15.27;3.30;;;14.90;99.90;;;;;;4917057;29;20405;-87
2023/10/04 08:45:24;;;;;;;15.45;2.83;;;15.00;99.90;;;;;;4906227;29;20128;-87
2023/10/04 08:47:56;;;;;;;10.23;3.10;;;15.00;99.90;;;;;;4906584;29;20040;-87
2023/10/04 08:50:41;;;;;;;12.07;3.22;;;15.00;99.90;;;;;;4916667;29;20048;-87
2023/10/04 08:53:32;;;;;;;17.98;5.50;;;15.10;99.90;;;;;;4920569;29;20096;-88
2023/10/04 08:56:08;;;;;;;10.10;2.88;;;14.80;99.90;;;;;;4917216;29;20511;-87
2023/10/04 08:58:36;;;;;;;11.52;2.70;;;15.20;99.90;;;;;;4913607;29;20064;-87
2023/10/04 09:01:06;;;;;;;10.85;3.50;;;15.20;99.90;;;;;;4908714;29;20553;-86
2023/10/04 09:03:34;;;;;;;15.93;3.15;;;15.20;99.90;;;;;;4901828;29;20057;-87
2023/10/04 09:06:04;;;;;;;8.93;2.65;;;15.30;99.90;;;;;;4913157;29;20076;-87
2023/10/04 09:08:31;;;;;;;11.52;2.92;;;15.30;99.90;;;;;;4916771;29;20044;-87
2023/10/04 09:10:58;;;;;;;14.23;3.25;;;15.30;99.90;;;;;;4906729;29;20216;-87
2023/10/04 09:13:25;;;;;;;10.48;2.70;;;15.50;99.90;;;;;;4916405;29;20068;-87
2023/10/04 09:15:52;;;;;;;8.00;2.60;;;15.30;99.90;;;;;;4935328;29;20991;-87
2023/10/04 09:18:29;;;;;;;17.80;3.60;;;15.30;99.90;;;;;;4934865;29;20409;-86
2023/10/04 09:20:57;;;;;;;11.40;3.10;;;15.40;99.90;;;;;;4934801;29;20113;-87
2023/10/04 09:23:23;;;;;;;9.13;2.90;;;15.50;99.90;;;;;;4935375;29;20158;-86
2023/10/04 09:25:54;;;;;;;12.00;2.88;;;15.60;99.90;;;;;;4934990;29;20131;-86
2023/10/04 09:28:36;;;;;;;17.02;3.00;;;15.60;99.90;;;;;;4934674;29;20044;-86
2023/10/04 09:31:19;;;;;;;14.70;3.25;;;15.60;99.90;;;;;;4937072;29;20122;-86
2023/10/04 09:33:45;;;;;;;12.88;2.95;;;15.70;99.90;;;;;;4934591;29;20123;-87
2023/10/04 09:36:13;;;;;;;18.92;3.65;;;15.70;99.90;;;;;;4934810;29;20116;-86
2023/10/04 09:38:41;;;;;;;8.82;2.83;;;15.70;99.90;;;;;;4934725;29;20185;-86
2023/10/04 09:41:10;;;;;;;14.77;3.08;;;15.90;99.90;;;;;;4934774;29;20099;-85
2023/10/04 09:43:39;;;;;;;13.80;4.05;;;16.00;99.90;;;;;;4934185;29;20127;-87
2023/10/04 09:46:11;;;;;;;12.82;2.85;;;16.00;99.90;;;;;;4934863;29;20036;-87
2023/10/04 09:48:41;;;;;;;11.80;3.60;;;16.00;99.90;;;;;;4933072;29;20055;-88
2023/10/04 09:51:09;;;;;;;12.18;3.08;;;16.10;99.90;;;;;;4934711;29;20552;-87
2023/10/04 09:53:40;;;;;;;9.93;3.40;;;16.20;99.90;;;;;;4934623;29;20079;-87
2023/10/04 09:56:11;;;;;;;10.48;2.75;;;16.20;99.90;;;;;;4950477;29;20075;-87
2023/10/04 09:58:48;;;;;;;11.43;3.42;;;16.10;99.90;;;;;;4934722;29;20050;-87
2023/10/04 10:01:17;;;;;;;12.73;2.53;;;16.30;99.90;;;;;;4934174;29;20050;-87
2023/10/04 10:03:59;;;;;;;11.93;2.75;;;16.00;99.90;;;;;;4935033;29;20040;-87
2023/10/04 10:06:28;;;;;;;11.93;2.80;;;16.20;99.90;;;;;;4934555;29;20139;-87
2023/10/04 10:08:58;;;;;;;8.85;2.70;;;16.30;99.90;;;;;;4951224;29;20131;-87
2023/10/04 10:11:26;;;;;;;12.50;3.08;;;16.40;99.90;;;;;;4936850;29;20043;-87
2023/10/04 10:13:54;;;;;;;13.57;3.33;;;16.60;99.90;;;;;;4933916;29;20064;-86
2023/10/04 10:16:24;;;;;;;12.38;3.05;;;16.80;99.90;;;;;;4933652;29;20504;-86
2023/10/04 10:18:52;;;;;;;11.75;2.70;;;16.80;99.90;;;;;;4930670;29;20044;-86
2023/10/04 10:21:19;;;;;;;17.83;3.40;;;16.80;99.90;;;;;;4949143;29;20055;-88
2023/10/04 10:24:02;;;;;;;10.75;2.78;;;17.00;99.90;;;;;;4931691;29;20040;-87
2023/10/04 10:26:31;;;;;;;11.00;2.88;;;17.10;99.90;;;;;;4931107;29;20052;-87
2023/10/04 10:29:05;;;;;;;9.95;2.90;;;17.10;99.90;;;;;;4931321;29;20382;-87
2023/10/04 10:31:32;;;;;;;12.48;3.00;;;17.20;99.90;;;;;;4949313;29;20040;-86
2023/10/04 10:33:58;;;;;;;8.45;2.70;;;17.20;99.90;;;;;;4935190;29;20051;-89
2023/10/04 10:36:27;;;;;;;11.73;2.92;;;17.20;99.90;;;;;;4935207;29;20040;-86
2023/10/04 10:38:54;;;;;;;10.05;3.00;;;17.30;99.90;;;;;;4935231;29;20046;-87
2023/10/04 10:41:27;;;;;;;10.40;2.95;;;17.30;99.90;;;;;;4936300;29;20127;-86
2023/10/04 10:44:30;;;;;;;8.32;3.00;;;17.30;99.90;;;;;;4935525;29;20044;-89
2023/10/04 10:47:12;;;;;;;10.57;2.72;;;17.20;99.90;;;;;;4941615;29;20040;-88
2023/10/04 10:49:55;;;;;;;9.32;3.00;;;17.10;99.90;;;;;;4929099;29;20050;-86
2023/10/04 10:52:28;;;;;;;10.60;3.30;;;17.10;99.90;;;;;;4948844;29;20045;-87
2023/10/04 10:54:57;;;;;;;10.35;3.28;;;17.00;99.90;;;;;;4944832;29;20041;-88
2023/10/04 10:57:29;;;;;;;9.60;3.05;;;17.00;99.90;;;;;;4946420;29;20040;-86
2023/10/04 11:00:04;;;;;;;12.90;3.22;;;16.90;99.90;;;;;;4938514;29;20049;-86
2023/10/04 11:02:31;;;;;;;12.88;2.92;;;16.90;99.90;;;;;;4921964;29;20048;-86
2023/10/04 11:04:58;;;;;;;10.27;3.20;;;16.80;99.90;;;;;;4933241;29;20490;-86
2023/10/04 11:07:26;;;;;;;10.60;3.25;;;16.90;99.90;;;;;;4933883;29;20126;-87
2023/10/04 11:09:55;;;;;;;8.82;2.70;;;16.90;99.90;;;;;;4937616;29;20104;-86
2023/10/04 11:12:23;;;;;;;8.77;2.70;;;16.60;99.90;;;;;;4932760;29;20449;-87
2023/10/04 11:14:50;;;;;;;12.48;3.25;;;16.70;99.90;;;;;;4932981;29;20060;-87
2023/10/04 11:17:20;;;;;;;10.52;2.72;;;16.60;99.90;;;;;;4933381;29;20481;-87
2023/10/04 11:19:50;;;;;;;9.65;2.97;;;16.60;99.90;;;;;;4929386;29;20062;-87
2023/10/04 11:22:17;;;;;;;12.85;3.10;;;16.60;99.90;;;;;;4931208;29;20044;-87
2023/10/04 11:24:44;;;;;;;12.25;3.22;;;16.60;99.90;;;;;;4933905;29;20051;-86
2023/10/04 11:27:11;;;;;;;9.10;2.80;;;16.60;99.90;;;;;;4933423;29;20044;-87
2023/10/04 11:29:38;;;;;;;9.32;3.20;;;16.50;99.90;;;;;;4932962;29;20047;-86
2023/10/04 11:32:06;;;;;;;10.20;3.35;;;16.50;99.90;;;;;;4943314;29;20070;-87
2023/10/04 11:34:37;;;;;;;10.77;3.75;;;16.40;99.90;;;;;;4933843;29;20051;-86
2023/10/04 11:37:04;;;;;;;10.95;3.22;;;16.50;99.90;;;;;;4941361;29;20114;-86
2023/10/04 11:39:36;;;;;;;9.75;3.30;;;16.50;99.90;;;;;;4950477;29;20048;-87
2023/10/04 11:42:05;;;;;;;9.98;3.03;;;16.40;99.90;;;;;;4939932;29;20055;-86
2023/10/04 11:44:34;;;;;;;15.90;3.45;;;16.50;99.90;;;;;;4938916;29;20126;-87
2023/10/04 11:47:03;;;;;;;8.98;3.05;;;16.50;99.90;;;;;;4949151;29;20188;-87
2023/10/04 11:49:34;;;;;;;11.35;3.28;;;16.40;99.90;;;;;;4941316;29;20103;-86
2023/10/04 11:52:05;;;;;;;11.93;3.30;;;16.50;99.90;;;;;;4936758;29;20044;-87
2023/10/04 11:54:44;;;;;;;9.52;3.00;;;16.50;99.90;;;;;;4940734;29;20067;-87
2023/10/04 11:57:11;;;;;;;12.15;3.70;;;16.50;99.90;;;;;;4936619;29;20088;-87
2023/10/04 11:59:39;;;;;;;13.80;3.28;;;16.50;99.90;;;;;;4960883;29;20039;-87
2023/10/04 12:02:06;;;;;;;13.70;3.60;;;16.50;99.90;;;;;;4936362;29;20044;-87
2023/10/04 12:04:34;;;;;;;10.63;3.47;;;16.40;99.90;;;;;;4936369;29;20533;-86
2023/10/04 12:07:03;;;;;;;9.38;3.00;;;16.40;99.90;;;;;;4943788;29;20095;-86
2023/10/04 12:09:34;;;;;;;13.48;3.40;;;16.50;99.90;;;;;;4951388;29;20416;-86
2023/10/04 12:12:03;;;;;;;11.57;3.35;;;16.50;99.90;;;;;;4935974;29;20036;-87
2023/10/04 12:14:32;;;;;;;12.82;3.30;;;16.50;99.90;;;;;;4947975;29;20573;-87
2023/10/04 12:17:03;;;;;;;7.63;3.03;;;16.50;99.90;;;;;;4936227;29;20047;-86
2023/10/04 12:19:35;;;;;;;9.52;3.17;;;16.60;99.90;;;;;;4948193;29;20050;-86
2023/10/04 12:22:08;;;;;;;10.40;3.05;;;16.60;99.90;;;;;;4936403;29;20767;-87
2023/10/04 12:24:39;;;;;;;8.82;2.97;;;16.60;99.90;;;;;;4937043;29;20075;-87
2023/10/04 12:27:08;;;;;;;10.35;3.53;;;16.60;99.90;;;;;;4928891;29;20033;-87
2023/10/04 12:29:38;;;;;;;11.77;3.10;;;16.70;99.90;;;;;;4956018;29;20048;-87
2023/10/04 12:32:07;;;;;;;9.98;2.97;;;16.70;99.90;;;;;;4935753;29;20036;-93
2023/10/04 12:34:37;;;;;;;9.10;3.20;;;16.70;99.90;;;;;;4952588;29;20044;-91
2023/10/04 12:37:04;;;;;;;11.02;3.00;;;16.80;99.90;;;;;;4935999;29;20040;-87
2023/10/04 12:39:38;;;;;;;13.82;3.05;;;16.70;99.90;;;;;;4942058;29;20044;-87
2023/10/04 12:42:05;;;;;;;8.60;2.90;;;16.80;99.90;;;;;;4940476;29;20052;-89
2023/10/04 12:44:31;;;;;;;10.18;2.92;;;16.80;99.90;;;;;;4935432;29;20398;-88
2023/10/04 12:46:58;;;;;;;10.45;3.45;;;16.80;99.90;;;;;;4935861;29;20051;-90
2023/10/04 12:49:26;;;;;;;11.13;2.85;;;16.80;99.90;;;;;;4937365;29;20131;-89
2023/10/04 12:51:54;;;;;;;11.07;3.13;;;16.80;99.90;;;;;;4948657;29;20040;-91
2023/10/04 12:54:23;;;;;;;12.18;3.05;;;16.80;99.90;;;;;;4964416;29;20051;-86
2023/10/04 12:56:51;;;;;;;11.23;3.15;;;16.80;99.90;;;;;;4934689;29;20063;-87
2023/10/04 12:59:19;;;;;;;11.32;2.80;;;16.70;99.90;;;;;;4935006;29;20490;-87